Observations for CATANIA FONTANAROSA, Italy (LICC)

LICC 181420Z 09012KT CAVOK 18/14 Q1021  
LICC 181350Z 10010KT 070V130 CAVOK 18/14 Q1021  
LICC 181320Z 09011KT 070V130 CAVOK 18/14 Q1021  
LICC 181250Z 10009KT 070V130 CAVOK 18/14 Q1021  
LICC 181220Z 09010KT 070V130 CAVOK 18/13 Q1021  
LICC 181150Z 09009KT 040V120 CAVOK 19/13 Q1021  
LICC 181120Z 08010KT CAVOK 18/12 Q1021  
LICC 181050Z 08010KT 050V120 CAVOK 19/11 Q1021  
LICC 181020Z 08009KT 050V110 CAVOK 19/11 Q1022  
LICC 180950Z 08010KT CAVOK 18/12 Q1022  
LICC 180920Z 08009KT 050V110 CAVOK 18/11 Q1022  
LICC 180850Z 07006KT 010V100 CAVOK 18/08 Q1021  
LICC 180820Z VRB02KT CAVOK 18/07 Q1021  
LICC 180750Z 22003KT 180V280 CAVOK 16/09 Q1021  
LICC 180720Z 24008G18KT 210V270 CAVOK 15/09 Q1021   
LICC 180650Z 24008KT CAVOK 13/10 Q1021  
LICC 180620Z 24007KT CAVOK 11/10 Q1021  
LICC 180550Z 21003KT CAVOK 10/09 Q1021  
LICC 180520Z 23004KT 180V250 8000 NSC 08/08 Q1020   
LICC 180450Z 23003KT 6000 NSC 07/07 Q1020   
LICC 180420Z 24005KT CAVOK 07/07 Q1020  
LICC 180350Z 23003KT CAVOK 08/08 Q1020  
LICC 180320Z 24005KT CAVOK 08/07 Q1020  
LICC 180250Z 26005KT 220V300 CAVOK 09/08 Q1020  
LICC 180220Z 23007KT CAVOK 09/09 Q1020  
LICC 180150Z VRB02KT 7000 NSC 09/09 Q1020   
LICC 180120Z 25006KT 7000 NSC 09/09 Q1020   
LICC 180050Z 24006KT 7000 NSC 09/09 Q1020   
LICC 180020Z 25006KT 7000 NSC 09/09 Q1020   
LICC 172350Z 24006KT CAVOK 10/10 Q1020  
LICC 172320Z 26005KT CAVOK 10/10 Q1021  
LICC 172250Z 27005KT CAVOK 10/10 Q1020  
LICC 172220Z 25007KT 9999 FEW060 11/10 Q1021
LICC 172150Z 25003KT 9999 FEW060 12/10 Q1020
LICC 172120Z VRB02KT 9999 FEW060 14/11 Q1020
LICC 172050Z VRB02KT 9999 FEW060 14/10 Q1020
LICC 172020Z 23004KT 170V250 9999 SCT050 14/10 Q1020
LICC 171950Z 23003KT 9999 BKN050 15/10 Q1020
LICC 171920Z VRB02KT 9999 BKN050 16/10 Q1020
LICC 171850Z 08002KT 9999 BKN050 16/10 Q1019
LICC 171820Z 09003KT 9999 BKN050 16/09 Q1019
LICC 171750Z 10004KT 9999 BKN050 16/10 Q1019
LICC 171720Z 11003KT 9999 SCT050 BKN080 16/09 Q1019 
LICC 171650Z 10003KT 9999 SCT050 SCT080 16/09 Q1019 
LICC 171620Z 10002KT 9999 SCT050 BKN080 17/09 Q1019 
LICC 171550Z VRB02KT 9999 SCT050 BKN080 17/09 Q1019 
LICC 171520Z 11005KT 9999 SCT050 BKN080 16/10 Q1019 
LICC 171450Z 09006KT 9999 SCT050 BKN080 16/11 Q1019 
LICC 171420Z 12006KT 9999 BKN070 17/11 Q1019
LICC 171350Z 10009KT 9999 BKN070 16/10 Q1019